Time;durP1;ratioP1;P1;durP2;ratioP2;P2;SDS_P1;SDS_P2;PMS_P1;PMS_P2;Temp;Humidity;BMP_temperature;BMP_pressure;BME280_temperature;BME280_humidity;BME280_pressure;Samples;Min_cycle;Max_cycle;Signal;HPM_P1;HPM_P2
2022/02/28 00:01:42;;;;;;;21.50;13.15;;;;;;;6.76;60.72;103120.72;4773549;29;120215;-89
2022/02/28 00:04:07;;;;;;;23.88;14.20;;;;;;;6.77;61.38;103114.13;4773322;29;122837;-89
2022/02/28 00:06:33;;;;;;;22.08;13.45;;;;;;;6.39;60.83;103057.00;4758592;29;123090;-88
2022/02/28 00:08:59;;;;;;;23.85;12.95;;;;;;;6.68;60.56;103096.44;4775439;29;119645;-87
2022/02/28 00:11:24;;;;;;;22.77;13.80;;;;;;;6.55;60.18;103073.22;4789235;29;119928;-88
2022/02/28 00:13:51;;;;;;;20.88;13.50;;;;;;;6.74;60.53;103098.47;4789252;29;121029;-88
2022/02/28 00:16:16;;;;;;;19.17;12.85;;;;;;;6.77;61.05;103097.75;4759540;29;119474;-88
2022/02/28 00:18:42;;;;;;;23.02;12.68;;;;;;;6.37;60.20;103049.16;4774286;29;119792;-90
2022/02/28 00:21:08;;;;;;;23.40;13.90;;;;;;;6.22;60.41;103024.75;4763433;29;121585;-87
2022/02/28 00:23:33;;;;;;;22.40;13.32;;;;;;;6.63;60.61;103086.63;4758442;29;122390;-89
2022/02/28 00:26:01;;;;;;;24.00;13.10;;;;;;;6.38;60.84;103047.22;4761410;29;122765;-88
2022/02/28 00:28:26;;;;;;;21.35;12.80;;;;;;;6.65;60.58;103094.44;4790847;29;119802;-88
2022/02/28 00:30:52;;;;;;;22.00;12.60;;;;;;;6.59;60.74;103091.19;4787689;29;119786;-88
2022/02/28 00:33:17;;;;;;;25.02;13.93;;;;;;;6.54;60.70;103075.16;4775288;29;122997;-86
2022/02/28 00:35:45;;;;;;;22.77;12.32;;;;;;;6.69;60.38;103092.56;4788930;29;119901;-86
2022/02/28 00:38:11;;;;;;;22.27;13.05;;;;;;;6.38;60.58;103055.38;4749388;29;121635;-86
2022/02/28 00:40:38;;;;;;;22.95;13.13;;;;;;;6.62;60.82;103079.56;4776676;29;124670;-89
2022/02/28 00:43:04;;;;;;;22.23;12.32;;;;;;;6.69;60.44;103087.09;4776498;29;120184;-89
2022/02/28 00:45:30;;;;;;;24.42;12.88;;;;;;;6.55;60.44;103065.81;4746367;29;122762;-87
2022/02/28 00:47:58;;;;;;;21.15;12.57;;;;;;;6.56;60.30;103069.34;4770597;29;119965;-87
2022/02/28 00:50:24;;;;;;;22.40;12.85;;;;;;;6.63;60.45;103085.84;4770872;29;122272;-90
2022/02/28 00:52:50;;;;;;;20.77;12.80;;;;;;;6.63;60.25;103075.72;4767012;29;122445;-90
2022/02/28 00:55:18;;;;;;;26.67;13.68;;;;;;;6.19;59.95;103018.09;4789932;29;119891;-90
2022/02/28 00:57:52;;;;;;;22.65;13.02;;;;;;;6.56;60.40;103070.13;4774532;29;123178;-89
2022/02/28 01:00:20;;;;;;;22.30;12.13;;;;;;;6.60;60.15;103076.41;4771701;29;123036;-87
2022/02/28 01:02:46;;;;;;;23.83;12.65;;;;;;;6.52;60.66;103069.28;4778077;29;119559;-87
2022/02/28 01:05:14;;;;;;;21.00;11.50;;;;;;;6.42;60.07;103051.59;4775146;29;121948;-87
2022/02/28 01:07:40;;;;;;;20.02;11.73;;;;;;;6.51;60.51;103056.00;4781934;29;119423;-87
2022/02/28 01:10:09;;;;;;;20.67;11.88;;;;;;;6.58;60.02;103058.84;4778354;29;122017;-87
2022/02/28 01:12:34;;;;;;;22.73;11.75;;;;;;;6.49;60.43;103047.41;4762990;29;123215;-85
2022/02/28 01:15:00;;;;;;;21.88;12.23;;;;;;;6.48;60.17;103046.63;4762596;29;119459;-88
2022/02/28 01:17:26;;;;;;;21.08;11.48;;;;;;;6.50;59.88;103038.84;4785085;29;120376;-87
2022/02/28 01:19:52;;;;;;;20.50;12.07;;;;;;;6.47;60.33;103040.38;4776767;29;123243;-86
2022/02/28 01:22:17;;;;;;;23.02;11.63;;;;;;;6.35;59.95;103015.22;4766285;29;120731;-85
2022/02/28 01:24:43;;;;;;;23.10;12.07;;;;;;;6.21;59.70;103001.38;4765379;29;122203;-87
2022/02/28 01:27:09;;;;;;;24.10;12.45;;;;;;;6.45;59.81;103041.91;4776111;29;120317;-85
2022/02/28 01:29:35;;;;;;;18.20;11.02;;;;;;;6.11;59.52;102983.66;4795026;29;119730;-86
2022/02/28 01:32:01;;;;;;;21.73;11.80;;;;;;;6.13;59.55;102992.28;4777799;29;122665;-87
2022/02/28 01:34:27;;;;;;;27.10;13.55;;;;;;;6.23;59.80;103008.03;4779665;29;119781;-85
2022/02/28 01:36:53;;;;;;;21.35;12.27;;;;;;;5.93;59.69;102961.59;4801775;29;120185;-87
2022/02/28 01:39:18;;;;;;;20.65;12.38;;;;;;;6.39;60.02;103037.91;4773346;29;123326;-86
2022/02/28 01:41:44;;;;;;;23.25;12.63;;;;;;;6.39;59.88;103027.00;4762576;29;119579;-87
2022/02/28 01:44:10;;;;;;;20.42;12.18;;;;;;;6.32;60.06;103021.41;4786035;29;122130;-86
2022/02/28 01:46:40;;;;;;;22.17;12.43;;;;;;;6.38;59.69;103028.13;4765653;29;123674;-86
2022/02/28 01:49:07;;;;;;;21.95;13.25;;;;;;;6.33;59.89;103012.88;4779341;29;122411;-86
2022/02/28 01:51:37;;;;;;;25.25;13.25;;;;;;;6.34;59.95;103022.63;4762719;29;123253;-87
2022/02/28 01:54:05;;;;;;;22.80;13.45;;;;;;;6.34;60.09;103014.44;4777298;29;119945;-88
2022/02/28 01:56:31;;;;;;;25.35;13.48;;;;;;;6.35;60.14;103004.31;4798697;29;119938;-86
2022/02/28 01:58:57;;;;;;;22.98;12.70;;;;;;;6.36;59.82;103016.81;4777072;29;124052;-86
2022/02/28 02:01:22;;;;;;;24.63;13.35;;;;;;;6.31;60.02;103014.38;4790848;29;121139;-86
2022/02/28 02:03:48;;;;;;;23.95;13.75;;;;;;;6.24;59.80;102990.53;4780603;29;122841;-87
2022/02/28 02:06:14;;;;;;;24.73;13.15;;;;;;;6.31;59.72;103003.47;4746655;29;123388;-88
2022/02/28 02:08:41;;;;;;;25.50;13.82;;;;;;;6.33;59.60;103009.34;4780610;29;119645;-87
2022/02/28 02:11:07;;;;;;;26.70;13.45;;;;;;;6.25;59.83;102996.75;4763164;29;122951;-87
2022/02/28 02:13:35;;;;;;;25.63;13.93;;;;;;;6.32;60.19;103000.38;4762297;29;120440;-87
2022/02/28 02:16:01;;;;;;;27.55;13.73;;;;;;;6.39;59.90;103010.66;4792927;29;119522;-90
2022/02/28 02:18:28;;;;;;;28.77;13.82;;;;;;;6.27;59.85;102991.72;4762423;29;121617;-88
2022/02/28 02:20:54;;;;;;;26.20;14.38;;;;;;;6.29;60.09;102998.41;4782217;29;119869;-88
2022/02/28 02:23:20;;;;;;;24.73;14.00;;;;;;;6.22;60.37;102990.09;4778304;29;121941;-89
2022/02/28 02:25:46;;;;;;;28.35;14.60;;;;;;;6.08;60.32;102962.59;4773751;29;123438;-89
2022/02/28 02:28:19;;;;;;;25.83;14.20;;;;;;;6.38;60.21;103009.03;4779749;29;119437;-88
2022/02/28 02:30:50;;;;;;;27.55;15.02;;;;;;;6.36;60.32;103017.59;4772007;29;120237;-89
2022/02/28 02:33:17;;;;;;;27.65;14.70;;;;;;;6.40;59.92;103017.66;4779554;29;119564;-88
2022/02/28 02:35:51;;;;;;;23.52;14.80;;;;;;;6.33;60.16;103006.63;4764600;29;121809;-91
2022/02/28 02:38:17;;;;;;;24.10;15.27;;;;;;;6.34;60.13;103003.53;4766793;29;123599;-89
2022/02/28 02:40:42;;;;;;;22.38;14.57;;;;;;;6.18;60.37;102986.53;4765739;29;119797;-88
2022/02/28 02:43:11;;;;;;;25.45;15.10;;;;;;;6.12;60.44;102977.06;4780104;29;122080;-89
2022/02/28 02:45:36;;;;;;;26.55;16.30;;;;;;;6.22;60.45;102983.88;4778711;29;123167;-88
2022/02/28 02:48:16;;;;;;;26.00;15.90;;;;;;;6.31;59.93;102998.03;4779127;29;119983;-88
2022/02/28 02:50:44;;;;;;;27.63;15.68;;;;;;;6.38;60.03;103017.22;4795736;29;119383;-88
2022/02/28 02:53:11;;;;;;;28.38;15.70;;;;;;;6.37;60.18;103019.16;4767011;29;122627;-88
2022/02/28 02:55:37;;;;;;;31.85;16.48;;;;;;;6.27;60.22;103008.09;4780564;29;119507;-89
2022/02/28 02:58:06;;;;;;;27.13;14.75;;;;;;;6.22;60.13;102994.78;4767042;29;123129;-87
2022/02/28 03:00:34;;;;;;;27.92;15.63;;;;;;;6.35;59.70;103009.78;4765145;29;120086;-87
2022/02/28 03:03:07;;;;;;;28.23;15.57;;;;;;;6.21;59.53;102996.72;4799957;29;122157;-87
2022/02/28 03:05:33;;;;;;;28.80;16.98;;;;;;;6.20;59.85;102992.41;4766432;29;123199;-87
2022/02/28 03:07:58;;;;;;;29.92;16.90;;;;;;;6.15;60.33;102987.25;4779640;29;119840;-88
2022/02/28 03:10:26;;;;;;;29.08;15.73;;;;;;;6.21;59.55;102993.97;4796026;29;121761;-87
2022/02/28 03:12:53;;;;;;;25.48;15.18;;;;;;;5.99;59.62;102965.56;4765219;29;123654;-88
2022/02/28 03:15:20;;;;;;;30.38;16.80;;;;;;;6.12;59.12;102987.97;4800801;29;119719;-87
2022/02/28 03:17:45;;;;;;;27.35;16.45;;;;;;;6.13;59.43;102998.50;4777185;29;123368;-88
2022/02/28 03:20:11;;;;;;;28.17;16.50;;;;;;;6.15;59.56;102996.22;4781330;29;119825;-87
2022/02/28 03:22:37;;;;;;;28.05;16.50;;;;;;;5.98;59.54;102974.91;4789805;29;122035;-87
2022/02/28 03:25:05;;;;;;;30.73;17.33;;;;;;;6.10;59.57;102999.22;4781333;29;127077;-88
2022/02/28 03:27:36;;;;;;;31.00;17.90;;;;;;;6.00;60.03;102982.72;4764032;29;119633;-88
2022/02/28 03:30:04;;;;;;;27.80;17.35;;;;;;;6.01;60.18;102981.56;4779494;29;122148;-89
2022/02/28 03:32:30;;;;;;;30.58;17.17;;;;;;;5.95;60.03;102977.56;4780378;29;120940;-87
2022/02/28 03:34:56;;;;;;;29.27;17.23;;;;;;;5.78;59.67;102960.50;4799043;29;119747;-89
2022/02/28 03:37:21;;;;;;;32.78;18.10;;;;;;;5.73;60.10;102947.19;4793495;29;127683;-89
2022/02/28 03:39:47;;;;;;;31.60;17.80;;;;;;;5.85;60.14;102970.72;4764205;29;119578;-87
2022/02/28 03:42:15;;;;;;;31.45;18.10;;;;;;;5.71;60.19;102954.16;4779944;29;122068;-88
2022/02/28 03:44:41;;;;;;;29.85;18.05;;;;;;;5.94;60.12;102979.50;4762275;29;122629;-89
2022/02/28 03:47:08;;;;;;;31.73;17.90;;;;;;;5.86;60.13;102983.19;4781503;29;119677;-89
2022/02/28 03:49:52;;;;;;;34.78;19.10;;;;;;;5.75;60.20;102957.72;4794212;29;122200;-88
2022/02/28 03:52:29;;;;;;;32.63;18.13;;;;;;;5.99;60.47;102998.28;4780406;29;124161;-89
2022/02/28 03:54:57;;;;;;;31.23;18.73;;;;;;;5.99;60.44;102995.53;4780084;29;119850;-89
2022/02/28 03:57:24;;;;;;;30.08;17.75;;;;;;;5.92;60.48;102984.53;4797987;29;119650;-89
2022/02/28 03:59:50;;;;;;;29.30;17.73;;;;;;;5.85;60.31;102976.19;4763582;29;119723;-88
2022/02/28 04:02:16;;;;;;;31.95;17.70;;;;;;;5.89;60.59;102985.19;4778640;29;123001;-88
2022/02/28 04:04:45;;;;;;;28.30;17.30;;;;;;;5.89;60.51;102998.81;4776371;29;122935;-89
2022/02/28 04:07:11;;;;;;;28.67;18.38;;;;;;;5.93;60.13;102996.22;4763976;29;120762;-88
2022/02/28 04:09:37;;;;;;;27.42;17.75;;;;;;;5.90;60.19;102983.28;4778099;29;123107;-87
2022/02/28 04:12:06;;;;;;;32.88;18.42;;;;;;;5.89;60.54;102984.41;4785212;29;123246;-88
2022/02/28 04:14:32;;;;;;;31.25;18.63;;;;;;;5.90;60.39;102988.75;4794177;29;119894;-89
2022/02/28 04:16:58;;;;;;;28.15;17.98;;;;;;;5.90;60.38;102988.75;4779818;29;122313;-88
2022/02/28 04:19:36;;;;;;;29.27;16.75;;;;;;;5.94;59.90;102995.84;4797299;29;123017;-89
2022/02/28 04:22:03;;;;;;;27.83;17.10;;;;;;;5.81;59.91;102984.28;4764448;29;122067;-87
2022/02/28 04:24:29;;;;;;;30.88;17.98;;;;;;;5.83;59.94;102984.72;4775222;29;122447;-87
2022/02/28 04:26:57;;;;;;;28.10;16.65;;;;;;;5.71;60.26;102967.75;4779640;29;119671;-88
2022/02/28 04:29:24;;;;;;;31.50;17.35;;;;;;;5.78;60.08;102981.50;4763339;29;122397;-88
2022/02/28 04:32:00;;;;;;;33.90;19.15;;;;;;;5.86;60.36;102994.09;4761848;29;123832;-88
2022/02/28 04:34:27;;;;;;;32.75;19.00;;;;;;;5.83;60.38;102995.63;4780293;29;119864;-89
2022/02/28 04:36:56;;;;;;;29.27;18.75;;;;;;;5.35;60.40;102920.78;4776770;29;122073;-89
2022/02/28 04:39:23;;;;;;;29.48;17.63;;;;;;;5.39;59.85;102927.09;4777257;29;120724;-88
2022/02/28 04:41:48;;;;;;;30.00;18.27;;;;;;;5.38;59.91;102913.84;4767672;29;119431;-90
2022/02/28 04:44:14;;;;;;;33.60;18.25;;;;;;;5.74;60.05;102967.03;4768036;29;122818;-87
2022/02/28 04:46:40;;;;;;;30.30;18.17;;;;;;;5.78;60.07;102976.06;4764719;29;121046;-89
2022/02/28 04:49:25;;;;;;;29.80;17.77;;;;;;;5.77;59.58;102986.16;4778689;29;122218;-88
2022/02/28 04:51:55;;;;;;;26.58;16.80;;;;;;;5.66;59.67;102968.81;4755698;29;123039;-87
2022/02/28 04:54:21;;;;;;;29.48;18.02;;;;;;;5.59;59.48;102957.03;4793517;29;121387;-90
2022/02/28 04:56:52;;;;;;;28.70;17.23;;;;;;;5.65;59.92;102969.19;4777710;29;119729;-88
2022/02/28 04:59:17;;;;;;;28.23;17.63;;;;;;;5.61;59.66;102965.63;4774635;29;120402;-87
2022/02/28 05:01:48;;;;;;;30.80;17.70;;;;;;;5.54;60.23;102950.72;4763620;29;120431;-89
2022/02/28 05:04:28;;;;;;;31.08;18.38;;;;;;;5.60;60.06;102964.03;4786220;29;122084;-88
2022/02/28 05:06:54;;;;;;;27.55;16.55;;;;;;;5.61;59.95;102966.41;4770740;29;120649;-88
2022/02/28 05:09:20;;;;;;;29.40;18.08;;;;;;;5.61;59.80;102962.88;4752902;29;122050;-87
2022/02/28 05:11:46;;;;;;;33.13;19.38;;;;;;;5.55;60.27;102948.78;4777337;29;122874;-88
2022/02/28 05:14:13;;;;;;;33.63;18.35;;;;;;;5.57;59.78;102954.66;4797194;29;120017;-89
2022/02/28 05:16:41;;;;;;;32.42;18.92;;;;;;;5.61;59.77;102960.16;4776332;29;122425;-87
2022/02/28 05:19:07;;;;;;;33.42;18.30;;;;;;;5.26;60.09;102908.56;4776026;29;125754;-88
2022/02/28 05:21:34;;;;;;;29.13;18.13;;;;;;;5.38;60.00;102924.72;4769782;29;119759;-90
2022/02/28 05:24:05;;;;;;;30.67;19.60;;;;;;;5.54;60.44;102948.00;4793148;29;119697;-89
2022/02/28 05:26:31;;;;;;;35.42;19.30;;;;;;;5.51;60.09;102939.78;4780681;29;123366;-89
2022/02/28 05:28:56;;;;;;;32.25;18.63;;;;;;;5.58;60.34;102944.56;4777249;29;123189;-89
2022/02/28 05:31:22;;;;;;;33.35;18.35;;;;;;;5.26;60.31;102890.31;4762869;29;123672;-88
2022/02/28 05:34:04;;;;;;;30.08;19.58;;;;;;;5.42;60.15;102920.91;4783189;29;120008;-88
2022/02/28 05:36:29;;;;;;;30.20;18.67;;;;;;;5.47;60.03;102939.72;4780917;29;122140;-89
2022/02/28 05:39:11;;;;;;;31.85;18.17;;;;;;;5.51;60.23;102946.00;4791315;29;121729;-87
2022/02/28 05:41:37;;;;;;;29.23;19.42;;;;;;;5.48;60.28;102929.59;4784779;29;119802;-88
2022/02/28 05:44:03;;;;;;;31.55;18.88;;;;;;;5.52;60.49;102944.84;4791619;29;121402;-89
2022/02/28 05:46:28;;;;;;;31.02;18.73;;;;;;;5.46;60.04;102921.00;4788733;29;122996;-88
2022/02/28 05:49:11;;;;;;;32.08;19.27;;;;;;;5.51;59.91;102928.88;4778019;29;121845;-88
2022/02/28 05:51:37;;;;;;;35.70;21.33;;;;;;;5.58;60.44;102939.09;4761238;29;122887;-89
2022/02/28 05:54:03;;;;;;;34.92;20.63;;;;;;;5.50;60.21;102932.75;4779356;29;119392;-88
2022/02/28 05:56:32;;;;;;;32.83;20.98;;;;;;;5.48;60.33;102935.84;4780188;29;119345;-89
2022/02/28 05:58:58;;;;;;;32.05;19.60;;;;;;;5.51;59.94;102956.91;4781136;29;119753;-89
2022/02/28 06:01:24;;;;;;;30.90;19.38;;;;;;;5.40;59.48;102923.22;4781743;29;119635;-89
2022/02/28 06:03:50;;;;;;;27.45;17.80;;;;;;;5.45;59.88;102952.09;4787550;29;122258;-89
2022/02/28 06:06:16;;;;;;;30.13;19.33;;;;;;;5.45;59.79;102952.91;4784739;29;123116;-88
2022/02/28 06:08:41;;;;;;;30.60;18.10;;;;;;;5.44;60.35;102945.06;4785589;29;120069;-89
2022/02/28 06:11:07;;;;;;;31.60;19.38;;;;;;;5.48;60.01;102952.16;4765554;29;122816;-88
2022/02/28 06:13:32;;;;;;;32.58;19.35;;;;;;;5.46;60.00;102943.56;4797455;29;121361;-87
2022/02/28 06:15:59;;;;;;;27.75;18.13;;;;;;;5.43;59.97;102947.00;4798281;29;119594;-89
2022/02/28 06:18:25;;;;;;;35.70;20.05;;;;;;;5.33;59.76;102923.09;4780815;29;120057;-87
2022/02/28 06:20:53;;;;;;;32.63;19.83;;;;;;;5.42;59.85;102931.81;4766693;29;119599;-88
2022/02/28 06:23:19;;;;;;;31.77;19.58;;;;;;;5.42;60.33;102939.97;4784617;29;123058;-89
2022/02/28 06:25:45;;;;;;;34.75;20.52;;;;;;;5.19;59.91;102906.47;4783430;29;123295;-89
2022/02/28 06:28:13;;;;;;;30.83;20.15;;;;;;;5.43;59.88;102948.94;4785070;29;119497;-88
2022/02/28 06:30:40;;;;;;;31.65;19.83;;;;;;;5.38;59.63;102938.34;4787081;29;122842;-89
2022/02/28 06:33:06;;;;;;;30.35;19.38;;;;;;;5.44;60.05;102955.94;4782231;29;119513;-89
2022/02/28 06:35:35;;;;;;;32.63;20.23;;;;;;;5.44;60.20;102947.78;4780717;29;122310;-90
2022/02/28 06:38:03;;;;;;;31.70;20.17;;;;;;;4.88;60.00;102861.97;4764520;29;123188;-87
2022/02/28 06:40:36;;;;;;;32.42;19.42;;;;;;;5.01;59.85;102891.75;4779496;29;119500;-89
2022/02/28 06:43:03;;;;;;;31.60;19.95;;;;;;;5.28;60.09;102923.38;4764880;29;122376;-88
2022/02/28 06:45:29;;;;;;;34.58;20.98;;;;;;;5.23;59.67;102912.78;4794502;29;120992;-88
2022/02/28 06:47:54;;;;;;;31.17;19.88;;;;;;;5.39;60.29;102932.53;4775464;29;119705;-91
2022/02/28 06:50:21;;;;;;;31.35;20.05;;;;;;;5.50;60.09;102938.19;4766364;29;122182;-88
2022/02/28 06:52:46;;;;;;;31.10;19.60;;;;;;;5.15;60.04;102887.38;4768757;29;124093;-88
2022/02/28 06:55:15;;;;;;;30.85;20.58;;;;;;;5.61;60.37;102952.00;4764696;29;122060;-88
2022/02/28 06:57:41;;;;;;;33.47;19.50;;;;;;;5.60;60.32;102942.25;4786500;29;123214;-85
2022/02/28 07:00:07;;;;;;;33.17;20.52;;;;;;;5.50;60.14;102928.09;4780855;29;119694;-89
2022/02/28 07:02:44;;;;;;;29.85;19.77;;;;;;;5.65;60.34;102937.28;4785666;29;121538;-88
2022/02/28 07:05:13;;;;;;;32.20;20.35;;;;;;;5.61;60.31;102930.22;4779409;29;123705;-89
2022/02/28 07:07:39;;;;;;;34.00;22.10;;;;;;;5.72;60.33;102950.28;4768481;29;120916;-88
2022/02/28 07:10:05;;;;;;;34.25;20.48;;;;;;;5.81;60.64;102959.00;4778495;29;120210;-89
2022/02/28 07:12:31;;;;;;;36.20;21.48;;;;;;;5.80;60.34;102949.25;4780393;29;123181;-87
2022/02/28 07:14:57;;;;;;;35.28;21.35;;;;;;;5.81;60.70;102953.53;4797395;29;119804;-88
2022/02/28 07:17:25;;;;;;;32.95;20.15;;;;;;;5.68;60.53;102922.16;4763492;29;122877;-88
2022/02/28 07:19:51;;;;;;;36.05;22.23;;;;;;;5.98;60.57;102958.56;4764324;29;119769;-88
2022/02/28 07:22:17;;;;;;;33.30;21.02;;;;;;;6.00;60.59;102956.25;4796475;29;119633;-88
2022/02/28 07:24:42;;;;;;;32.03;20.75;;;;;;;5.97;60.65;102953.47;4762778;29;123086;-87
2022/02/28 07:27:08;;;;;;;32.83;21.27;;;;;;;5.82;60.46;102927.88;4781206;29;120030;-88
2022/02/28 07:29:36;;;;;;;34.55;21.08;;;;;;;6.08;60.92;102957.16;4785043;29;123597;-87
2022/02/28 07:32:02;;;;;;;32.38;20.90;;;;;;;5.87;60.62;102919.41;4796132;29;120422;-88
2022/02/28 07:34:30;;;;;;;31.75;21.02;;;;;;;6.00;60.47;102937.19;4783878;29;119790;-88
2022/02/28 07:36:56;;;;;;;35.00;21.33;;;;;;;6.19;60.70;102957.34;4784303;29;119687;-88
2022/02/28 07:39:22;;;;;;;30.30;19.90;;;;;;;5.85;60.16;102894.47;4782294;29;119423;-87
2022/02/28 07:41:47;;;;;;;30.25;20.02;;;;;;;6.20;60.06;102948.03;4781996;29;122093;-88
2022/02/28 07:44:13;;;;;;;34.85;21.75;;;;;;;6.18;59.97;102942.16;4786387;29;120030;-87
2022/02/28 07:46:40;;;;;;;33.42;21.00;;;;;;;6.34;60.10;102962.66;4768366;29;119856;-88
2022/02/28 07:49:05;;;;;;;32.03;21.27;;;;;;;6.30;60.02;102958.28;4796117;29;119785;-87
2022/02/28 07:51:31;;;;;;;32.40;22.23;;;;;;;6.51;60.49;102982.38;4769014;29;123165;-88
2022/02/28 07:53:56;;;;;;;29.50;20.30;;;;;;;6.44;60.22;102955.81;4767036;29;122231;-87
2022/02/28 07:56:22;;;;;;;32.17;20.83;;;;;;;6.59;59.76;102963.03;4788452;29;119503;-87
2022/02/28 07:58:48;;;;;;;30.83;21.55;;;;;;;6.73;59.85;102970.63;4777841;29;121794;-85
2022/02/28 08:01:14;;;;;;;33.17;21.38;;;;;;;6.76;60.14;102970.69;4763951;29;122416;-86
2022/02/28 08:03:39;;;;;;;28.65;20.83;;;;;;;6.91;59.79;102977.13;4782045;29;122799;-88
2022/02/28 08:06:05;;;;;;;31.52;21.67;;;;;;;6.69;59.49;102937.06;4795321;29;119752;-86
2022/02/28 08:08:30;;;;;;;27.05;20.25;;;;;;;6.94;59.36;102961.97;4793814;29;119900;-87
2022/02/28 08:10:56;;;;;;;30.95;20.60;;;;;;;6.89;58.95;102952.16;4766918;29;123427;-88
2022/02/28 08:13:21;;;;;;;29.10;20.58;;;;;;;7.13;59.14;102975.47;4798629;29;119891;-87
2022/02/28 08:15:47;;;;;;;29.02;20.30;;;;;;;7.21;59.05;102979.09;4779325;29;122058;-88
2022/02/28 08:18:13;;;;;;;30.65;20.27;;;;;;;7.25;58.93;102980.69;4782606;29;119884;-88
2022/02/28 08:20:39;;;;;;;32.25;20.50;;;;;;;7.39;58.66;102977.38;4780364;29;120126;-87
2022/02/28 08:23:05;;;;;;;30.58;21.90;;;;;;;7.39;58.43;102969.16;4776097;29;123201;-89
2022/02/28 08:25:31;;;;;;;29.42;20.73;;;;;;;7.56;58.22;102978.69;4764026;29;120837;-88
2022/02/28 08:27:56;;;;;;;29.75;19.48;;;;;;;7.56;57.98;102970.50;4765555;29;122388;-87
2022/02/28 08:30:22;;;;;;;29.27;20.95;;;;;;;7.63;58.17;102976.84;4778051;29;120304;-89
2022/02/28 08:32:48;;;;;;;25.88;20.02;;;;;;;7.59;57.71;102970.56;4777716;29;120802;-88
2022/02/28 08:35:18;;;;;;;27.60;19.92;;;;;;;7.77;57.08;102984.41;4796966;29;124868;-88
2022/02/28 08:37:47;;;;;;;28.67;21.08;;;;;;;7.82;57.28;102996.97;4790991;29;119964;-87
2022/02/28 08:40:14;;;;;;;28.80;20.17;;;;;;;7.78;57.69;102971.53;4781305;29;120392;-88
2022/02/28 08:42:39;;;;;;;28.17;19.88;;;;;;;7.89;56.84;102989.63;4785050;29;123241;-87
2022/02/28 08:45:08;;;;;;;27.92;20.60;;;;;;;8.04;56.43;102992.47;4778998;29;119521;-88
2022/02/28 08:47:34;;;;;;;26.98;19.80;;;;;;;7.91;56.90;102964.63;4775179;29;121939;-88
2022/02/28 08:50:01;;;;;;;27.70;19.38;;;;;;;7.94;56.89;102963.88;4778449;29;123704;-89
2022/02/28 08:52:27;;;;;;;25.88;19.35;;;;;;;8.26;57.01;102994.22;4796659;29;119909;-88
2022/02/28 08:54:53;;;;;;;27.27;19.83;;;;;;;8.24;56.48;102985.63;4763892;29;121892;-89
2022/02/28 08:57:20;;;;;;;27.15;20.00;;;;;;;8.26;56.56;102986.03;4793684;29;123090;-89
2022/02/28 08:59:46;;;;;;;26.35;18.90;;;;;;;8.38;56.19;102987.72;4781273;29;121405;-88
2022/02/28 09:02:12;;;;;;;26.05;19.00;;;;;;;8.48;56.59;102996.00;4782171;29;124445;-88
2022/02/28 09:04:38;;;;;;;25.27;18.75;;;;;;;8.38;55.46;102963.09;4780655;29;120037;-87
2022/02/28 09:07:04;;;;;;;24.20;19.67;;;;;;;8.57;55.64;102993.75;4776930;29;122796;-88
2022/02/28 09:09:29;;;;;;;25.08;18.65;;;;;;;8.52;55.34;102983.16;4780421;29;123838;-88
2022/02/28 09:11:55;;;;;;;24.50;18.55;;;;;;;8.57;53.93;102982.00;4787014;29;119614;-88
2022/02/28 09:14:21;;;;;;;25.58;17.63;;;;;;;8.38;53.58;102952.97;4765986;29;122151;-89
2022/02/28 09:16:46;;;;;;;24.63;18.02;;;;;;;8.66;53.63;102992.63;4763264;29;122607;-89
2022/02/28 09:19:12;;;;;;;23.20;18.00;;;;;;;8.63;54.08;102979.69;4778886;29;119960;-88
2022/02/28 09:21:39;;;;;;;24.98;18.05;;;;;;;8.68;53.90;102982.06;4793704;29;120170;-88
2022/02/28 09:24:05;;;;;;;24.58;18.65;;;;;;;8.50;53.36;102949.91;4763777;29;123043;-87
2022/02/28 09:26:31;;;;;;;27.25;18.08;;;;;;;8.78;52.70;102993.09;4791665;29;122241;-89
2022/02/28 09:28:57;;;;;;;24.73;17.90;;;;;;;8.51;53.03;102942.47;4777253;29;123959;-88
2022/02/28 09:31:23;;;;;;;24.90;17.88;;;;;;;8.79;52.81;102977.47;4777918;29;121014;-89
2022/02/28 09:33:48;;;;;;;23.60;17.88;;;;;;;8.63;53.76;102946.88;4760002;29;122213;-88
2022/02/28 09:36:15;;;;;;;25.35;18.55;;;;;;;8.75;54.03;102966.47;4801300;29;120254;-88
2022/02/28 09:38:41;;;;;;;23.83;18.00;;;;;;;9.06;53.75;102984.25;4781337;29;120157;-88
2022/02/28 09:41:10;;;;;;;23.10;17.85;;;;;;;8.95;54.13;102964.25;4781005;29;122049;-87
2022/02/28 09:43:55;;;;;;;25.13;18.50;;;;;;;9.13;53.37;102984.28;4767379;29;122857;-88
2022/02/28 09:46:39;;;;;;;24.40;18.10;;;;;;;9.10;53.42;102968.63;4785054;29;120090;-88
2022/02/28 09:49:24;;;;;;;25.15;17.40;;;;;;;9.14;52.99;102965.91;4777940;29;123226;-87
2022/02/28 09:52:15;;;;;;;24.67;18.17;;;;;;;9.31;52.62;102994.53;4777648;29;119845;-87
2022/02/28 09:55:15;;;;;;;29.40;18.70;;;;;;;9.37;53.75;102990.25;4765789;29;121914;-88
2022/02/28 09:57:59;;;;;;;25.23;19.38;;;;;;;9.40;52.40;103000.44;4794141;29;120058;-88
2022/02/28 10:00:41;;;;;;;24.77;17.33;;;;;;;9.45;51.13;103011.81;4792051;29;120907;-89
2022/02/28 10:03:07;;;;;;;22.48;17.45;;;;;;;9.38;50.94;103006.31;4772674;29;122969;-89
2022/02/28 10:05:32;;;;;;;23.83;17.17;;;;;;;9.27;51.05;102993.75;4771741;29;123641;-89
2022/02/28 10:08:06;;;;;;;23.13;18.05;;;;;;;9.50;51.22;103021.63;4787475;29;120013;-88
2022/02/28 10:10:36;;;;;;;24.42;18.48;;;;;;;9.55;52.55;103018.50;4784184;29;123398;-87
2022/02/28 10:13:03;;;;;;;26.52;18.15;;;;;;;9.47;51.02;103000.47;4781856;29;120173;-87
2022/02/28 10:15:29;;;;;;;23.50;18.50;;;;;;;9.58;51.04;103011.47;4797967;29;122022;-87
2022/02/28 10:18:02;;;;;;;25.85;18.48;;;;;;;9.68;51.78;103027.16;4763149;29;123178;-87
2022/02/28 10:20:28;;;;;;;25.67;17.80;;;;;;;9.72;51.21;103023.28;4776104;29;122495;-88
2022/02/28 10:23:01;;;;;;;28.38;17.83;;;;;;;9.79;50.79;103022.50;4782271;29;122555;-87
2022/02/28 10:25:35;;;;;;;24.08;17.73;;;;;;;9.82;51.53;103017.03;4763288;29;122833;-88
2022/02/28 10:28:27;;;;;;;20.63;16.77;;;;;;;9.90;50.86;103030.72;4784040;29;119989;-87
2022/02/28 10:31:13;;;;;;;21.90;16.90;;;;;;;9.92;50.29;103025.66;4785536;29;122322;-87
2022/02/28 10:33:55;;;;;;;24.23;17.77;;;;;;;9.95;50.32;103027.63;4772590;29;119770;-87
2022/02/28 10:36:44;;;;;;;22.38;17.23;;;;;;;9.97;50.11;103022.53;4779127;29;122381;-86
2022/02/28 10:39:11;;;;;;;23.77;16.38;;;;;;;10.00;50.07;103011.56;4776030;29;123431;-86
2022/02/28 10:41:43;;;;;;;24.67;16.65;;;;;;;10.15;49.67;103035.09;4779923;29;119864;-87
2022/02/28 10:44:12;;;;;;;23.88;17.30;;;;;;;10.20;51.05;103031.19;4791913;29;121378;-86
2022/02/28 10:46:42;;;;;;;23.60;17.30;;;;;;;10.10;49.71;103004.53;4777108;29;123010;-86
2022/02/28 10:49:22;;;;;;;21.98;15.93;;;;;;;10.30;49.71;103026.91;4777362;29;120194;-86
2022/02/28 10:51:55;;;;;;;22.13;16.20;;;;;;;10.34;49.36;103025.72;4763387;29;123157;-86
2022/02/28 10:54:31;;;;;;;21.23;16.67;;;;;;;10.41;50.31;103028.50;4781742;29;123381;-85
2022/02/28 10:57:06;;;;;;;20.70;16.48;;;;;;;10.40;48.91;103021.41;4777568;29;119726;-85
2022/02/28 10:59:57;;;;;;;21.73;15.77;;;;;;;10.48;48.69;103022.22;4763554;29;123226;-85
2022/02/28 11:02:26;;;;;;;23.02;16.98;;;;;;;10.45;49.05;103021.03;4789837;29;119600;-86
2022/02/28 11:05:17;;;;;;;24.30;16.58;;;;;;;10.52;49.74;103024.97;4778029;29;122329;-85
2022/02/28 11:07:54;;;;;;;21.60;17.52;;;;;;;10.53;49.29;103018.28;4779651;29;123339;-85
2022/02/28 11:10:21;;;;;;;24.08;17.83;;;;;;;10.62;49.79;103015.91;4758191;29;120854;-86
2022/02/28 11:12:48;;;;;;;23.45;17.23;;;;;;;10.68;49.72;103017.09;4777114;29;122838;-86
2022/02/28 11:15:19;;;;;;;23.13;17.35;;;;;;;10.74;49.64;103012.78;4777872;29;121669;-86